createdAt,value
2019-04-01T00:00:35.114Z,0.00
2019-04-01T00:01:35.098Z,0.00
2019-04-01T00:02:35.096Z,0.00
2019-04-01T00:03:35.082Z,0.00
2019-04-01T00:04:35.063Z,0.00
2019-04-01T00:05:35.051Z,0.00
2019-04-01T00:06:35.045Z,0.00
2019-04-01T00:07:35.039Z,0.00
2019-04-01T00:08:35.041Z,0.00
2019-04-01T00:09:35.011Z,0.00
2019-04-01T00:10:34.996Z,0.00
2019-04-01T00:11:34.982Z,0.00
2019-04-01T00:12:34.975Z,0.00
2019-04-01T00:13:34.971Z,0.00
2019-04-01T00:14:34.948Z,0.00
2019-04-01T00:15:34.941Z,0.00
2019-04-01T00:16:34.931Z,0.00
2019-04-01T00:17:34.923Z,0.00
2019-04-01T00:18:34.906Z,0.00
2019-04-01T00:19:34.901Z,0.00
2019-04-01T00:20:34.884Z,0.00
2019-04-01T00:21:34.874Z,0.00
2019-04-01T00:22:34.910Z,0.00
2019-04-01T00:23:34.862Z,0.00
2019-04-01T00:24:34.842Z,0.00
2019-04-01T00:25:34.839Z,0.00
2019-04-01T00:26:34.820Z,0.00
2019-04-01T00:27:34.810Z,0.00
2019-04-01T00:28:34.800Z,0.00
2019-04-01T00:29:34.795Z,0.00
2019-04-01T00:30:34.777Z,0.00
2019-04-01T00:31:34.774Z,0.00
2019-04-01T00:32:34.756Z,0.00
2019-04-01T00:33:34.748Z,0.00
2019-04-01T00:34:34.736Z,0.00
2019-04-01T00:35:34.737Z,0.00
2019-04-01T00:36:34.716Z,0.00
2019-04-01T00:37:34.709Z,0.00
2019-04-01T00:38:34.694Z,0.00
2019-04-01T00:39:34.692Z,0.00
2019-04-01T00:40:34.680Z,0.00
2019-04-01T00:41:34.672Z,0.00
2019-04-01T00:42:34.653Z,0.00
2019-04-01T00:43:34.648Z,0.00
2019-04-01T00:44:34.629Z,0.00
2019-04-01T00:45:34.618Z,0.00
2019-04-01T00:46:34.682Z,0.00
2019-04-01T00:47:34.615Z,0.00
2019-04-01T00:48:34.593Z,0.00
2019-04-01T00:49:34.599Z,0.00
2019-04-01T00:50:34.566Z,0.00
2019-04-01T00:51:34.556Z,0.00
2019-04-01T00:52:34.548Z,0.00
2019-04-01T00:53:34.539Z,0.00
2019-04-01T00:54:34.524Z,0.00
2019-04-01T00:55:34.527Z,0.00
2019-04-01T00:56:34.510Z,0.00
2019-04-01T00:57:34.493Z,0.00
2019-04-01T00:58:34.489Z,0.00
2019-04-01T00:59:34.475Z,0.00
2019-04-01T01:00:34.460Z,0.00
2019-04-01T01:01:34.449Z,0.00
2019-04-01T01:02:34.446Z,0.00
2019-04-01T01:03:34.433Z,0.00
2019-04-01T01:04:34.426Z,0.00
2019-04-01T01:05:34.415Z,0.00
2019-04-01T01:06:34.415Z,0.00
2019-04-01T01:07:34.413Z,0.00
2019-04-01T01:08:34.376Z,0.00
2019-04-01T01:09:34.378Z,0.00
2019-04-01T01:10:34.354Z,0.00
2019-04-01T01:11:34.343Z,0.00
2019-04-01T01:12:34.340Z,0.00
2019-04-01T01:13:34.322Z,0.00
2019-04-01T01:14:34.313Z,0.00
2019-04-01T01:15:34.305Z,0.00
2019-04-01T01:16:34.292Z,0.00
2019-04-01T01:17:34.281Z,0.00
2019-04-01T01:18:34.281Z,0.00
2019-04-01T01:19:34.286Z,0.00
2019-04-01T01:20:34.249Z,0.00
2019-04-01T01:21:34.245Z,0.00
2019-04-01T01:22:34.224Z,0.00
2019-04-01T01:23:34.214Z,0.00
2019-04-01T01:24:34.225Z,0.00
2019-04-01T01:25:34.196Z,0.00
2019-04-01T01:26:34.188Z,0.00
2019-04-01T01:27:34.194Z,0.00
2019-04-01T01:28:34.160Z,0.00
2019-04-01T01:29:34.153Z,0.00
2019-04-01T01:30:34.141Z,0.00
2019-04-01T01:31:34.128Z,0.00
2019-04-01T01:32:34.134Z,0.00
2019-04-01T01:33:34.110Z,0.00
2019-04-01T01:34:34.780Z,0.00
2019-04-01T01:35:34.091Z,0.00
2019-04-01T01:36:34.081Z,0.00
2019-04-01T01:37:34.063Z,0.00
2019-04-01T01:38:34.065Z,0.00
2019-04-01T01:39:34.053Z,0.00
2019-04-01T01:40:34.031Z,0.00
2019-04-01T01:41:34.033Z,0.00
2019-04-01T01:42:34.040Z,0.00
2019-04-01T01:43:34.003Z,0.00
2019-04-01T01:44:34.000Z,0.00
2019-04-01T01:45:33.977Z,0.00
2019-04-01T01:46:33.977Z,0.00
2019-04-01T01:47:33.959Z,0.00
2019-04-01T01:48:33.964Z,0.00
2019-04-01T01:49:33.935Z,0.00
2019-04-01T01:50:33.926Z,0.00
2019-04-01T01:51:33.917Z,0.00
2019-04-01T01:52:33.911Z,0.00
2019-04-01T01:53:33.897Z,0.00
2019-04-01T01:54:33.889Z,0.00
2019-04-01T01:55:33.874Z,0.00
2019-04-01T01:56:33.864Z,0.00
2019-04-01T01:57:33.861Z,0.00
2019-04-01T01:58:33.844Z,0.00
2019-04-01T01:59:33.844Z,0.00
2019-04-01T02:00:33.819Z,0.00
2019-04-01T02:01:33.812Z,0.00
2019-04-01T02:02:33.828Z,0.00
2019-04-01T02:03:33.838Z,0.00
2019-04-01T02:04:33.781Z,0.00
2019-04-01T02:05:33.765Z,0.00
2019-04-01T02:06:33.772Z,0.00
2019-04-01T02:07:33.744Z,0.00
2019-04-01T02:08:33.736Z,0.00
2019-04-01T02:09:33.724Z,0.00
2019-04-01T02:10:33.720Z,0.00
2019-04-01T02:11:33.702Z,0.00
2019-04-01T02:12:33.691Z,0.00
2019-04-01T02:13:33.678Z,0.00
2019-04-01T02:14:33.748Z,0.00
2019-04-01T02:15:33.656Z,0.00
2019-04-01T02:16:33.645Z,0.00
2019-04-01T02:17:33.636Z,0.00
2019-04-01T02:18:33.628Z,0.00
2019-04-01T02:19:33.617Z,0.00
2019-04-01T02:20:33.601Z,0.00
2019-04-01T02:21:33.597Z,0.00
2019-04-01T02:22:33.588Z,0.00
2019-04-01T02:23:33.575Z,0.00
2019-04-01T02:24:33.557Z,0.00
2019-04-01T02:25:33.546Z,0.00
2019-04-01T02:26:33.536Z,0.00
2019-04-01T02:27:33.526Z,0.00
2019-04-01T02:28:33.513Z,0.00
2019-04-01T02:29:33.505Z,0.00
2019-04-01T02:30:33.495Z,0.00
2019-04-01T02:31:33.481Z,0.00
2019-04-01T02:32:33.484Z,0.00
2019-04-01T02:33:33.482Z,0.00
2019-04-01T02:34:33.451Z,0.00
2019-04-01T02:35:33.441Z,0.00
2019-04-01T02:36:33.426Z,0.00
2019-04-01T02:37:33.416Z,0.00
2019-04-01T02:38:33.411Z,0.00
2019-04-01T02:39:33.394Z,0.00
2019-04-01T02:40:33.387Z,0.00
2019-04-01T02:41:33.372Z,0.00
2019-04-01T02:42:33.367Z,0.00
2019-04-01T02:43:33.354Z,0.00
2019-04-01T02:44:33.354Z,0.00
2019-04-01T02:45:33.337Z,0.00
2019-04-01T02:46:33.318Z,0.00
2019-04-01T02:47:33.308Z,0.00
2019-04-01T02:48:33.301Z,0.00
2019-04-01T02:49:33.288Z,0.00
2019-04-01T02:50:33.283Z,0.00
2019-04-01T02:51:33.273Z,0.00
2019-04-01T02:52:33.274Z,0.00
2019-04-01T02:53:33.250Z,0.00
2019-04-01T02:54:33.246Z,0.00
2019-04-01T02:55:33.231Z,0.00
2019-04-01T02:56:33.234Z,0.00
2019-04-01T02:57:33.208Z,0.00
2019-04-01T02:58:33.191Z,0.00
2019-04-01T02:59:33.182Z,0.00
2019-04-01T03:00:33.165Z,0.00
2019-04-01T03:01:33.159Z,0.00
2019-04-01T03:02:33.169Z,0.00
2019-04-01T03:03:33.135Z,0.00
2019-04-01T03:04:33.121Z,0.00
2019-04-01T03:05:33.123Z,0.00
2019-04-01T03:06:33.100Z,0.00
2019-04-01T03:07:33.108Z,0.00
2019-04-01T03:08:33.101Z,0.00
2019-04-01T03:09:33.085Z,0.00
2019-04-01T03:10:33.062Z,0.00
2019-04-01T03:11:33.051Z,0.00
2019-04-01T03:12:33.049Z,0.00
2019-04-01T03:13:33.055Z,0.00
2019-04-01T03:14:33.051Z,0.00
2019-04-01T03:15:33.840Z,0.00
2019-04-01T03:16:32.994Z,0.00
2019-04-01T03:17:32.985Z,0.00
2019-04-01T03:18:32.974Z,0.00
2019-04-01T03:19:32.974Z,0.00
2019-04-01T03:20:32.962Z,0.00
2019-04-01T03:21:32.941Z,0.00
2019-04-01T03:22:32.931Z,0.00
2019-04-01T03:23:32.916Z,0.00
2019-04-01T03:24:32.953Z,0.00
2019-04-01T03:25:32.895Z,0.00
2019-04-01T03:26:32.909Z,0.00
2019-04-01T03:27:32.874Z,0.00
2019-04-01T03:28:32.863Z,0.00
2019-04-01T03:29:32.854Z,0.00
2019-04-01T03:30:32.846Z,0.00
2019-04-01T03:31:32.856Z,0.00
2019-04-01T03:32:32.824Z,0.00
2019-04-01T03:33:32.811Z,0.00
2019-04-01T03:34:32.811Z,0.00
2019-04-01T03:35:32.800Z,0.00
2019-04-01T03:36:32.792Z,0.00
2019-04-01T03:37:32.776Z,0.00
2019-04-01T03:38:32.759Z,0.00
2019-04-01T03:39:32.751Z,0.00
2019-04-01T03:40:32.745Z,0.00
2019-04-01T03:41:32.728Z,0.00
2019-04-01T03:42:32.722Z,0.00
2019-04-01T03:43:32.719Z,0.00
2019-04-01T03:44:32.698Z,0.00
2019-04-01T03:45:32.683Z,0.00
2019-04-01T03:46:32.671Z,0.00
2019-04-01T03:47:32.662Z,0.00
2019-04-01T03:48:32.668Z,0.00
2019-04-01T03:49:32.648Z,0.00
2019-04-01T03:50:32.631Z,0.00
2019-04-01T03:51:32.696Z,0.00
2019-04-01T03:52:32.602Z,0.00
2019-04-01T03:53:32.594Z,0.00
2019-04-01T03:54:32.594Z,0.00
2019-04-01T03:55:32.580Z,0.00
2019-04-01T03:56:32.559Z,0.00
2019-04-01T03:57:32.554Z,0.00
2019-04-01T03:58:32.540Z,0.00
2019-04-01T03:59:32.535Z,0.00
2019-04-01T04:00:32.533Z,0.00
2019-04-01T04:01:32.507Z,0.00
2019-04-01T04:02:32.501Z,0.00
2019-04-01T04:03:32.485Z,0.00
2019-04-01T04:04:32.475Z,0.00
2019-04-01T04:05:32.473Z,0.00
2019-04-01T04:06:32.480Z,0.00
2019-04-01T04:07:32.440Z,0.00
2019-04-01T04:08:32.446Z,0.00
2019-04-01T04:09:32.423Z,0.00
2019-04-01T04:10:32.423Z,0.00
2019-04-01T04:11:32.416Z,0.00
2019-04-01T04:12:32.388Z,0.00
2019-04-01T04:13:32.379Z,0.00
2019-04-01T04:14:32.378Z,0.00
2019-04-01T04:15:32.483Z,0.00
2019-04-01T04:16:32.342Z,0.00
2019-04-01T04:17:32.337Z,0.00
2019-04-01T04:18:32.325Z,0.00
2019-04-01T04:19:32.309Z,0.00
2019-04-01T04:20:32.297Z,0.00
2019-04-01T04:21:32.287Z,0.00
2019-04-01T04:22:32.286Z,0.00
2019-04-01T04:23:32.286Z,0.00
2019-04-01T04:24:32.258Z,4.00
2019-04-01T04:25:32.244Z,4.00
2019-04-01T04:26:32.256Z,0.00
2019-04-01T04:27:32.240Z,0.00
2019-04-01T04:28:32.224Z,4.00
2019-04-01T04:29:32.207Z,4.00
2019-04-01T04:30:32.195Z,0.00
2019-04-01T04:31:32.192Z,4.00
2019-04-01T04:32:32.172Z,4.00
2019-04-01T04:33:32.164Z,0.00
2019-04-01T04:34:32.156Z,4.00
2019-04-01T04:35:32.167Z,4.00
2019-04-01T04:36:32.128Z,4.00
2019-04-01T04:37:32.114Z,8.00
2019-04-01T04:38:32.102Z,8.00
2019-04-01T04:39:32.091Z,8.00
2019-04-01T04:40:32.078Z,12.00
2019-04-01T04:41:32.071Z,8.00
2019-04-01T04:42:32.062Z,12.00
2019-04-01T04:43:32.046Z,12.00
2019-04-01T04:44:32.041Z,12.00
2019-04-01T04:45:32.028Z,16.00
2019-04-01T04:46:32.024Z,12.00
2019-04-01T04:47:32.018Z,12.00
2019-04-01T04:48:31.998Z,16.00
2019-04-01T04:49:31.980Z,16.00
2019-04-01T04:50:31.974Z,20.00
2019-04-01T04:51:31.977Z,20.00
2019-04-01T04:52:31.957Z,20.00
2019-04-01T04:53:31.936Z,24.00
2019-04-01T04:54:31.932Z,24.00
2019-04-01T04:55:31.914Z,24.00
2019-04-01T04:56:31.915Z,24.00
2019-04-01T04:57:31.915Z,32.00
2019-04-01T04:58:31.893Z,32.00
2019-04-01T04:59:31.871Z,32.00
2019-04-01T05:00:31.870Z,36.00
2019-04-01T05:01:31.849Z,36.00
2019-04-01T05:02:31.844Z,36.00
2019-04-01T05:03:31.827Z,36.00
2019-04-01T05:04:31.817Z,40.00
2019-04-01T05:05:31.811Z,44.00
2019-04-01T05:06:31.811Z,44.00
2019-04-01T05:07:31.787Z,44.00
2019-04-01T05:08:31.791Z,44.00
2019-04-01T05:09:31.762Z,48.00
2019-04-01T05:10:31.751Z,48.00
2019-04-01T05:11:31.749Z,52.00
2019-04-01T05:12:31.732Z,52.00
2019-04-01T05:13:31.729Z,56.00
2019-04-01T05:14:31.708Z,56.00
2019-04-01T05:15:31.700Z,56.00
2019-04-01T05:16:31.686Z,60.00
2019-04-01T05:17:31.677Z,60.00
2019-04-01T05:18:31.665Z,64.00
2019-04-01T05:19:31.658Z,64.00
2019-04-01T05:20:31.645Z,64.00
2019-04-01T05:21:31.647Z,68.00
2019-04-01T05:22:31.620Z,68.00
2019-04-01T05:23:31.615Z,68.00
2019-04-01T05:24:31.601Z,76.00
2019-04-01T05:25:32.035Z,76.00
2019-04-01T05:26:31.579Z,76.00
2019-04-01T05:27:31.566Z,80.00
2019-04-01T05:28:31.559Z,80.00
2019-04-01T05:29:31.547Z,80.00
2019-04-01T05:30:31.543Z,80.00
2019-04-01T05:31:31.523Z,84.00
2019-04-01T05:32:31.515Z,84.00
2019-04-01T05:33:31.505Z,88.00
2019-04-01T05:34:31.527Z,88.00
2019-04-01T05:35:31.482Z,92.00
2019-04-01T05:36:31.582Z,92.00
2019-04-01T05:37:31.456Z,92.00
2019-04-01T05:38:31.447Z,96.00
2019-04-01T05:39:31.439Z,96.00
2019-04-01T05:40:31.431Z,100.00
2019-04-01T05:41:31.423Z,104.00
2019-04-01T05:42:31.412Z,104.00
2019-04-01T05:43:31.393Z,104.00
2019-04-01T05:44:31.385Z,108.00
2019-04-01T05:45:31.370Z,112.00
2019-04-01T05:46:31.360Z,112.00
2019-04-01T05:47:31.363Z,116.00
2019-04-01T05:48:31.350Z,116.00
2019-04-01T05:49:31.399Z,120.00
2019-04-01T05:50:31.339Z,116.00
2019-04-01T05:51:31.309Z,120.00
2019-04-01T05:52:31.294Z,120.00
2019-04-01T05:53:31.302Z,128.00
2019-04-01T05:54:31.271Z,136.00
2019-04-01T05:55:31.264Z,148.00
2019-04-01T05:56:31.249Z,164.00
2019-04-01T05:57:31.250Z,176.00
2019-04-01T05:58:31.234Z,200.00
2019-04-01T05:59:31.284Z,232.00
2019-04-01T06:00:31.206Z,264.00
2019-04-01T06:01:31.195Z,292.00
2019-04-01T06:02:31.194Z,316.00
2019-04-01T06:03:31.172Z,364.00
2019-04-01T06:04:31.169Z,412.00
2019-04-01T06:05:31.168Z,452.00
2019-04-01T06:06:31.144Z,472.00
2019-04-01T06:07:31.142Z,480.00
2019-04-01T06:08:31.131Z,476.00
2019-04-01T06:09:31.111Z,480.00
2019-04-01T06:10:31.108Z,484.00
2019-04-01T06:11:31.086Z,484.00
2019-04-01T06:12:31.077Z,484.00
2019-04-01T06:13:31.063Z,484.00
2019-04-01T06:14:31.055Z,488.00
2019-04-01T06:15:31.048Z,488.00
2019-04-01T06:16:31.054Z,484.00
2019-04-01T06:17:31.024Z,488.00
2019-04-01T06:18:31.009Z,488.00
2019-04-01T06:19:31.003Z,488.00
2019-04-01T06:20:30.986Z,496.00
2019-04-01T06:21:30.982Z,500.00
2019-04-01T06:22:30.965Z,508.00
2019-04-01T06:23:30.956Z,516.00
2019-04-01T06:24:30.947Z,528.00
2019-04-01T06:25:30.937Z,540.00
2019-04-01T06:26:30.925Z,548.00
2019-04-01T06:27:31.493Z,560.00
2019-04-01T06:28:30.924Z,568.00
2019-04-01T06:29:30.898Z,572.00
2019-04-01T06:30:30.888Z,576.00
2019-04-01T06:31:30.868Z,584.00
2019-04-01T06:32:30.864Z,584.00
2019-04-01T06:33:30.850Z,584.00
2019-04-01T06:34:30.871Z,584.00
2019-04-01T06:35:30.830Z,580.00
2019-04-01T06:36:30.822Z,580.00
2019-04-01T06:37:30.814Z,584.00
2019-04-01T06:38:30.807Z,580.00
2019-04-01T06:39:30.791Z,576.00
2019-04-01T06:40:30.787Z,572.00
2019-04-01T06:41:30.775Z,572.00
2019-04-01T06:42:30.760Z,576.00
2019-04-01T06:43:30.748Z,580.00
2019-04-01T06:44:30.737Z,580.00
2019-04-01T06:45:30.728Z,588.00
2019-04-01T06:46:30.726Z,592.00
2019-04-01T06:47:30.708Z,600.00
2019-04-01T06:48:30.701Z,608.00
2019-04-01T06:49:30.687Z,616.00
2019-04-01T06:50:30.677Z,624.00
2019-04-01T06:51:30.665Z,632.00
2019-04-01T06:52:30.657Z,636.00
2019-04-01T06:53:30.641Z,640.00
2019-04-01T06:54:30.642Z,644.00
2019-04-01T06:55:30.623Z,640.00
2019-04-01T06:56:30.616Z,644.00
2019-04-01T06:57:30.611Z,644.00
2019-04-01T06:58:30.596Z,644.00
2019-04-01T06:59:30.581Z,644.00
2019-04-01T07:00:30.565Z,652.00
2019-04-01T07:01:30.549Z,660.00
2019-04-01T07:02:30.539Z,668.00
2019-04-01T07:03:30.536Z,672.00
2019-04-01T07:04:30.522Z,680.00
2019-04-01T07:05:30.511Z,688.00
2019-04-01T07:06:30.501Z,696.00
2019-04-01T07:07:30.489Z,704.00
2019-04-01T07:08:30.485Z,716.00
2019-04-01T07:09:30.538Z,724.00
2019-04-01T07:10:30.465Z,732.00
2019-04-01T07:11:30.564Z,744.00
2019-04-01T07:12:30.444Z,752.00
2019-04-01T07:13:30.431Z,764.00
2019-04-01T07:14:30.423Z,768.00
2019-04-01T07:15:30.417Z,776.00
2019-04-01T07:16:30.403Z,780.00
2019-04-01T07:17:30.392Z,788.00
2019-04-01T07:18:30.379Z,796.00
2019-04-01T07:19:30.368Z,800.00
2019-04-01T07:20:30.362Z,812.00
2019-04-01T07:21:30.339Z,828.00
2019-04-01T07:22:30.333Z,848.00
2019-04-01T07:23:30.337Z,876.00
2019-04-01T07:24:30.310Z,908.00
2019-04-01T07:25:33.797Z,932.00
2019-04-01T07:26:30.291Z,956.00
2019-04-01T07:27:30.276Z,964.00
2019-04-01T07:28:30.271Z,968.00
2019-04-01T07:29:30.257Z,964.00
2019-04-01T07:30:30.254Z,972.00
2019-04-01T07:31:30.234Z,980.00
2019-04-01T07:32:30.236Z,980.00
2019-04-01T07:33:30.213Z,984.00
2019-04-01T07:34:30.218Z,996.00
2019-04-01T07:35:30.195Z,996.00
2019-04-01T07:36:30.187Z,1004.00
2019-04-01T07:37:30.170Z,1008.00
2019-04-01T07:38:30.174Z,1020.00
2019-04-01T07:39:30.149Z,1032.00
2019-04-01T07:40:30.142Z,1040.00
2019-04-01T07:41:30.138Z,1048.00
2019-04-01T07:42:30.117Z,1056.00
2019-04-01T07:43:30.111Z,1060.00
2019-04-01T07:44:30.109Z,1072.00
2019-04-01T07:45:30.090Z,1084.00
2019-04-01T07:46:30.076Z,1092.00
2019-04-01T07:47:30.059Z,1104.00
2019-04-01T07:48:30.046Z,1112.00
2019-04-01T07:49:30.180Z,1116.00
2019-04-01T07:50:30.029Z,1128.00
2019-04-01T07:51:30.084Z,1140.00
2019-04-01T07:52:30.028Z,1148.00
2019-04-01T07:53:30.008Z,1160.00
2019-04-01T07:54:29.980Z,1172.00
2019-04-01T07:55:29.977Z,1180.00
2019-04-01T07:56:29.962Z,1184.00
2019-04-01T07:57:32.590Z,1196.00
2019-04-01T07:58:29.947Z,1204.00
2019-04-01T07:59:29.932Z,1212.00
2019-04-01T08:00:29.920Z,1224.00
2019-04-01T08:01:29.913Z,1232.00
2019-04-01T08:02:29.895Z,1240.00
2019-04-01T08:03:29.888Z,1256.00
2019-04-01T08:04:29.894Z,1268.00
2019-04-01T08:05:29.880Z,1288.00
2019-04-01T08:06:29.855Z,1300.00
2019-04-01T08:07:29.850Z,1316.00
2019-04-01T08:08:29.844Z,1332.00
2019-04-01T08:09:29.841Z,1360.00
2019-04-01T08:10:29.827Z,1380.00
2019-04-01T08:11:29.799Z,1404.00
2019-04-01T08:12:29.797Z,1436.00
2019-04-01T08:13:29.789Z,1460.00
2019-04-01T08:14:29.770Z,1488.00
2019-04-01T08:15:29.814Z,1516.00
2019-04-01T08:16:29.747Z,1548.00
2019-04-01T08:17:29.736Z,1580.00
2019-04-01T08:18:29.732Z,1604.00
2019-04-01T08:19:29.709Z,1632.00
2019-04-01T08:20:29.709Z,1660.00
2019-04-01T08:21:29.705Z,1700.00
2019-04-01T08:22:29.679Z,1732.00
2019-04-01T08:23:29.674Z,1760.00
2019-04-01T08:24:29.664Z,1804.00
2019-04-01T08:25:29.744Z,1844.00
2019-04-01T08:26:29.648Z,1904.00
2019-04-01T08:27:29.644Z,1968.00
2019-04-01T08:28:29.614Z,2048.00
2019-04-01T08:29:30.798Z,2136.00
2019-04-01T08:30:29.602Z,2228.00
2019-04-01T08:31:29.583Z,2284.00
2019-04-01T08:32:29.575Z,2328.00
2019-04-01T08:33:29.562Z,2476.00
2019-04-01T08:34:29.552Z,2840.00
2019-04-01T08:35:29.541Z,10144.00
2019-04-01T08:36:29.549Z,27232.00
2019-04-01T08:37:29.528Z,33536.00
2019-04-01T08:38:29.513Z,33280.00
2019-04-01T08:39:29.501Z,32896.00
2019-04-01T08:40:29.498Z,32832.00
2019-04-01T08:41:29.477Z,32704.00
2019-04-01T08:42:29.478Z,32704.00
2019-04-01T08:43:29.462Z,33056.00
2019-04-01T08:44:29.450Z,34432.00
2019-04-01T08:45:29.438Z,34592.00
2019-04-01T08:46:29.422Z,35200.00
2019-04-01T08:47:29.415Z,34848.00
2019-04-01T08:48:29.401Z,33792.00
2019-04-01T08:49:29.395Z,31424.00
2019-04-01T08:50:29.373Z,31680.00
2019-04-01T08:51:29.367Z,31904.00
2019-04-01T08:52:29.354Z,32672.00
2019-04-01T08:53:29.353Z,34368.00
2019-04-01T08:54:29.335Z,35616.00
2019-04-01T08:55:29.338Z,34272.00
2019-04-01T08:56:29.316Z,32384.00
2019-04-01T08:57:29.308Z,31072.00
2019-04-01T08:58:29.296Z,32576.00
2019-04-01T08:59:29.296Z,33120.00
2019-04-01T09:00:29.271Z,34496.00
2019-04-01T09:01:35.561Z,34176.00
2019-04-01T09:02:30.250Z,33056.00
2019-04-01T09:03:29.247Z,33504.00
2019-04-01T09:04:29.230Z,33152.00
2019-04-01T09:05:29.255Z,33824.00
2019-04-01T09:06:31.285Z,34432.00
2019-04-01T09:07:29.205Z,34944.00
2019-04-01T09:08:29.186Z,34208.00
2019-04-01T09:09:29.177Z,33472.00
2019-04-01T09:10:29.171Z,33568.00
2019-04-01T09:11:29.176Z,32960.00
2019-04-01T09:12:29.158Z,32768.00
2019-04-01T09:13:29.154Z,33504.00
2019-04-01T09:14:29.124Z,32416.00
2019-04-01T09:15:29.124Z,32096.00
2019-04-01T09:16:29.112Z,29152.00
2019-04-01T09:17:29.170Z,13660.00
2019-04-01T09:18:29.086Z,2264.00
2019-04-01T09:19:29.093Z,2044.00
2019-04-01T09:20:29.064Z,1960.00
2019-04-01T09:21:29.061Z,1876.00
2019-04-01T09:22:29.050Z,1856.00
2019-04-01T09:23:29.037Z,1796.00
2019-04-01T09:24:29.089Z,1708.00
2019-04-01T09:25:29.006Z,1636.00
2019-04-01T09:26:29.068Z,1572.00
2019-04-01T09:27:28.994Z,1540.00
2019-04-01T09:28:28.977Z,1520.00
2019-04-01T09:29:28.981Z,1500.00
2019-04-01T09:30:28.982Z,1452.00
2019-04-01T09:31:28.946Z,1412.00
2019-04-01T09:32:28.936Z,1392.00
2019-04-01T09:33:28.937Z,1324.00
2019-04-01T09:34:28.918Z,1260.00
2019-04-01T09:35:28.914Z,1368.00
2019-04-01T09:36:28.900Z,1268.00
2019-04-01T09:37:28.878Z,1140.00
2019-04-01T09:38:28.875Z,1012.00
2019-04-01T09:39:28.867Z,984.00
2019-04-01T09:40:28.854Z,980.00
2019-04-01T09:41:28.844Z,1032.00
2019-04-01T09:42:28.831Z,2232.00
2019-04-01T09:43:28.816Z,13104.00
2019-04-01T09:44:36.707Z,19648.00
2019-04-01T09:45:29.802Z,7920.00
2019-04-01T09:46:28.794Z,1636.00
2019-04-01T09:47:28.776Z,756.00
2019-04-01T09:48:28.767Z,720.00
2019-04-01T09:49:28.750Z,668.00
2019-04-01T09:50:28.743Z,656.00
2019-04-01T09:51:28.735Z,648.00
2019-04-01T09:52:28.732Z,640.00
2019-04-01T09:53:28.720Z,644.00
2019-04-01T09:54:28.697Z,644.00
2019-04-01T09:55:28.684Z,640.00
2019-04-01T09:56:28.674Z,628.00
2019-04-01T09:57:28.669Z,616.00
2019-04-01T09:58:28.665Z,608.00
2019-04-01T09:59:28.651Z,596.00
2019-04-01T10:00:28.641Z,580.00
2019-04-01T10:01:28.757Z,552.00
2019-04-01T10:02:31.961Z,528.00
2019-04-01T10:03:28.604Z,524.00
2019-04-01T10:04:28.601Z,524.00
2019-04-01T10:05:28.670Z,508.00
2019-04-01T10:06:28.575Z,484.00
2019-04-01T10:07:28.567Z,468.00
2019-04-01T10:08:41.563Z,464.00
2019-04-01T10:09:29.550Z,468.00
2019-04-01T10:10:28.535Z,452.00
2019-04-01T10:11:28.517Z,444.00
2019-04-01T10:12:28.507Z,440.00
2019-04-01T10:13:28.495Z,432.00
2019-04-01T10:14:28.497Z,432.00
2019-04-01T10:15:28.501Z,432.00
2019-04-01T10:16:28.461Z,432.00
2019-04-01T10:17:28.454Z,428.00
2019-04-01T10:18:28.442Z,424.00
2019-04-01T10:19:28.443Z,428.00
2019-04-01T10:20:28.428Z,424.00
2019-04-01T10:21:28.424Z,416.00
2019-04-01T10:22:28.441Z,424.00
2019-04-01T10:23:28.420Z,424.00
2019-04-01T10:24:28.408Z,420.00
2019-04-01T10:25:28.385Z,416.00
2019-04-01T10:26:28.365Z,416.00
2019-04-01T10:27:28.420Z,416.00
2019-04-01T10:28:31.928Z,412.00
2019-04-01T10:29:28.333Z,412.00
2019-04-01T10:30:28.316Z,404.00
2019-04-01T10:31:28.309Z,408.00
2019-04-01T10:32:28.304Z,404.00
2019-04-01T10:33:28.289Z,400.00
2019-04-01T10:34:28.277Z,400.00
2019-04-01T10:35:28.260Z,396.00
2019-04-01T10:36:28.253Z,396.00
2019-04-01T10:37:28.243Z,392.00
2019-04-01T10:38:28.255Z,392.00
2019-04-01T10:39:28.230Z,396.00
2019-04-01T10:40:28.210Z,388.00
2019-04-01T10:41:28.193Z,388.00
2019-04-01T10:42:28.184Z,388.00
2019-04-01T10:43:28.175Z,384.00
2019-04-01T10:44:28.170Z,376.00
2019-04-01T10:45:28.152Z,376.00
2019-04-01T10:46:28.157Z,368.00
2019-04-01T10:47:28.165Z,372.00
2019-04-01T10:48:28.163Z,368.00
2019-04-01T10:49:28.126Z,364.00
2019-04-01T10:50:28.105Z,360.00
2019-04-01T10:51:28.130Z,356.00
2019-04-01T10:52:28.093Z,356.00
2019-04-01T10:53:28.105Z,352.00
2019-04-01T10:54:28.060Z,348.00
2019-04-01T10:55:28.108Z,344.00
2019-04-01T10:56:28.101Z,340.00
2019-04-01T10:57:28.078Z,340.00
2019-04-01T10:58:28.049Z,336.00
2019-04-01T10:59:28.081Z,332.00
2019-04-01T11:00:28.027Z,328.00
2019-04-01T11:01:27.998Z,324.00
2019-04-01T11:02:28.044Z,324.00
2019-04-01T11:03:28.063Z,320.00
2019-04-01T11:04:28.062Z,320.00
2019-04-01T11:05:27.945Z,316.00
2019-04-01T11:06:28.004Z,312.00
2019-04-01T11:07:28.124Z,304.00
2019-04-01T11:08:27.992Z,304.00
2019-04-01T11:09:38.071Z,300.00
2019-04-01T11:10:28.877Z,296.00
2019-04-01T11:11:27.871Z,292.00
2019-04-01T11:12:27.866Z,288.00
2019-04-01T11:13:27.846Z,288.00
2019-04-01T11:14:27.840Z,284.00
2019-04-01T11:15:27.841Z,280.00
2019-04-01T11:16:31.469Z,276.00
2019-04-01T11:17:27.809Z,272.00
2019-04-01T11:18:27.803Z,268.00
2019-04-01T11:19:27.791Z,264.00
2019-04-01T11:20:27.777Z,260.00
2019-04-01T11:21:27.774Z,252.00
2019-04-01T11:22:27.757Z,252.00
2019-04-01T11:23:27.757Z,248.00
2019-04-01T11:24:27.730Z,248.00
2019-04-01T11:25:27.712Z,248.00
2019-04-01T11:26:27.719Z,248.00
2019-04-01T11:27:27.707Z,248.00
2019-04-01T11:28:27.681Z,244.00
2019-04-01T11:29:27.677Z,244.00
2019-04-01T11:30:27.757Z,244.00
2019-04-01T11:31:27.695Z,240.00
2019-04-01T11:32:27.658Z,244.00
2019-04-01T11:33:27.959Z,244.00
2019-04-01T11:34:28.605Z,240.00
2019-04-01T11:35:28.095Z,240.00
2019-04-01T11:36:27.630Z,236.00
2019-04-01T11:37:27.622Z,240.00
2019-04-01T11:38:27.638Z,240.00
2019-04-01T11:39:27.602Z,236.00
2019-04-01T11:40:27.679Z,236.00
2019-04-01T11:41:27.540Z,236.00
2019-04-01T11:42:27.526Z,232.00
2019-04-01T11:43:27.574Z,236.00
2019-04-01T11:44:27.567Z,232.00
2019-04-01T11:45:27.617Z,232.00
2019-04-01T11:46:27.486Z,232.00
2019-04-01T11:47:27.494Z,228.00
2019-04-01T11:48:27.517Z,228.00
2019-04-01T11:49:28.491Z,228.00
2019-04-01T11:50:27.442Z,228.00
2019-04-01T11:51:33.027Z,228.00
2019-04-01T11:52:28.454Z,224.00
2019-04-01T11:53:27.407Z,220.00
2019-04-01T11:54:27.397Z,224.00
2019-04-01T11:55:27.390Z,224.00
2019-04-01T11:56:27.376Z,220.00
2019-04-01T11:57:27.384Z,220.00
2019-04-01T11:58:27.354Z,220.00
2019-04-01T11:59:27.352Z,220.00
2019-04-01T12:00:27.332Z,220.00
2019-04-01T12:01:27.323Z,216.00
2019-04-01T12:02:27.310Z,216.00
2019-04-01T12:03:27.301Z,216.00
2019-04-01T12:04:27.415Z,216.00
2019-04-01T12:05:27.274Z,212.00
2019-04-01T12:06:27.266Z,212.00
2019-04-01T12:07:27.256Z,212.00
2019-04-01T12:08:27.267Z,212.00
2019-04-01T12:09:27.910Z,212.00
2019-04-01T12:10:27.219Z,208.00
2019-04-01T12:11:27.206Z,208.00
2019-04-01T12:12:27.197Z,208.00
2019-04-01T12:13:27.183Z,204.00
2019-04-01T12:14:27.184Z,204.00
2019-04-01T12:15:27.175Z,200.00
2019-04-01T12:16:27.156Z,200.00
2019-04-01T12:17:27.145Z,200.00
2019-04-01T12:18:27.141Z,200.00
2019-04-01T12:19:27.122Z,200.00
2019-04-01T12:20:27.118Z,196.00
2019-04-01T12:21:27.107Z,200.00
2019-04-01T12:22:27.093Z,196.00
2019-04-01T12:23:27.080Z,196.00
2019-04-01T12:24:27.074Z,196.00
2019-04-01T12:25:27.068Z,192.00
2019-04-01T12:26:27.057Z,192.00
2019-04-01T12:27:27.042Z,188.00
2019-04-01T12:28:27.031Z,188.00
2019-04-01T12:29:27.019Z,188.00
2019-04-01T12:30:27.010Z,184.00
2019-04-01T12:31:27.011Z,184.00
2019-04-01T12:32:26.995Z,184.00
2019-04-01T12:33:26.973Z,184.00
2019-04-01T12:34:26.973Z,180.00
2019-04-01T12:35:26.949Z,176.00
2019-04-01T12:36:27.564Z,176.00
2019-04-01T12:37:29.944Z,176.00
2019-04-01T12:38:26.924Z,172.00
2019-04-01T12:39:26.909Z,176.00
2019-04-01T12:40:26.908Z,172.00
2019-04-01T12:41:26.897Z,172.00
2019-04-01T12:42:26.881Z,168.00